Time;durP1;ratioP1;P1;durP2;ratioP2;P2;SDS_P1;SDS_P2;PMS_P1;PMS_P2;Temp;Humidity;BMP_temperature;BMP_pressure;BME280_temperature;BME280_humidity;BME280_pressure;Samples;Min_cycle;Max_cycle;Signal;HPM_P1;HPM_P2
2021/12/09 00:00:28;;;;;;;24.52;10.77;;;;;;;;;;4992520;28;20050;-64
2021/12/09 00:02:56;;;;;;;18.02;9.90;;;;;;;;;;4992185;28;20077;-64
2021/12/09 00:05:22;;;;;;;18.02;9.88;;;;;;;;;;4985009;28;20046;-65
2021/12/09 00:07:52;;;;;;;15.60;9.18;;;;;;;;;;4993444;28;20050;-65
2021/12/09 00:10:19;;;;;;;22.05;10.52;;;;;;;;;;4993282;28;20100;-65
2021/12/09 00:12:46;;;;;;;20.05;11.02;;;;;;;;;;4976219;28;20050;-65
2021/12/09 00:15:13;;;;;;;24.33;11.75;;;;;;;;;;4993459;28;20100;-65
2021/12/09 00:17:39;;;;;;;28.08;12.50;;;;;;;;;;4987976;28;20502;-65
2021/12/09 00:20:07;;;;;;;28.85;13.68;;;;;;;;;;4973754;28;20501;-65
2021/12/09 00:22:34;;;;;;;26.42;13.32;;;;;;;;;;4973817;28;20047;-65
2021/12/09 00:25:00;;;;;;;22.58;11.27;;;;;;;;;;4972500;28;20050;-65
2021/12/09 00:27:27;;;;;;;21.60;9.95;;;;;;;;;;4973687;28;20101;-65
2021/12/09 00:29:54;;;;;;;18.17;9.60;;;;;;;;;;4972381;28;20046;-65
2021/12/09 00:32:21;;;;;;;19.13;9.50;;;;;;;;;;4977897;28;20124;-65
2021/12/09 00:34:50;;;;;;;18.63;8.68;;;;;;;;;;4991581;28;20101;-65
2021/12/09 00:37:24;;;;;;;20.52;9.48;;;;;;;;;;4992898;28;20046;-64
2021/12/09 00:39:52;;;;;;;15.63;8.18;;;;;;;;;;4992745;28;20051;-65
2021/12/09 00:42:24;;;;;;;12.23;7.63;;;;;;;;;;4992966;28;20472;-64
2021/12/09 00:44:52;;;;;;;18.23;8.30;;;;;;;;;;4991551;28;20085;-65
2021/12/09 00:47:19;;;;;;;13.88;7.25;;;;;;;;;;4992826;28;20042;-65
2021/12/09 00:49:46;;;;;;;16.48;7.05;;;;;;;;;;4991777;28;20054;-65
2021/12/09 00:52:14;;;;;;;12.88;6.82;;;;;;;;;;4992797;28;20334;-65
2021/12/09 00:54:42;;;;;;;19.50;7.40;;;;;;;;;;4991345;28;20509;-65
2021/12/09 00:57:10;;;;;;;8.05;6.18;;;;;;;;;;4991280;28;20054;-65
2021/12/09 00:59:37;;;;;;;14.88;6.82;;;;;;;;;;4991444;28;20077;-65
2021/12/09 01:02:03;;;;;;;17.85;8.23;;;;;;;;;;4976235;28;20510;-65
2021/12/09 01:04:30;;;;;;;10.93;6.40;;;;;;;;;;4973197;28;20129;-65
2021/12/09 01:06:57;;;;;;;29.05;11.98;;;;;;;;;;4971813;28;20054;-65
2021/12/09 01:09:23;;;;;;;12.80;6.25;;;;;;;;;;4955827;28;20078;-65
2021/12/09 01:11:50;;;;;;;12.98;6.07;;;;;;;;;;4971827;28;20501;-64
2021/12/09 01:14:17;;;;;;;11.48;5.60;;;;;;;;;;4973167;28;20129;-65
2021/12/09 01:16:43;;;;;;;10.55;4.97;;;;;;;;;;4972884;28;20098;-65
2021/12/09 01:19:10;;;;;;;7.93;3.65;;;;;;;;;;4972744;28;20133;-65
2021/12/09 01:21:37;;;;;;;8.23;3.65;;;;;;;;;;4971716;28;20055;-65
2021/12/09 01:24:03;;;;;;;10.90;3.90;;;;;;;;;;4971580;28;20047;-65
2021/12/09 01:26:30;;;;;;;14.55;4.13;;;;;;;;;;4973037;28;20097;-66
2021/12/09 01:29:02;;;;;;;8.98;4.68;;;;;;;;;;4971541;28;20087;-65
2021/12/09 01:31:36;;;;;;;11.23;3.70;;;;;;;;;;4971668;28;20414;-65
2021/12/09 01:34:04;;;;;;;8.50;3.78;;;;;;;;;;4971530;28;20055;-65
2021/12/09 01:36:32;;;;;;;8.55;3.53;;;;;;;;;;4972968;28;20055;-65
2021/12/09 01:39:00;;;;;;;8.70;4.70;;;;;;;;;;4971441;28;20498;-65
2021/12/09 01:41:27;;;;;;;9.27;4.22;;;;;;;;;;4975973;28;20046;-65
2021/12/09 01:43:54;;;;;;;13.07;5.15;;;;;;;;;;4992233;28;20105;-65
2021/12/09 01:46:21;;;;;;;7.55;4.07;;;;;;;;;;4991031;28;20050;-65
2021/12/09 01:48:50;;;;;;;8.80;4.47;;;;;;;;;;4991979;28;20103;-65
2021/12/09 01:51:18;;;;;;;8.38;4.25;;;;;;;;;;4992127;28;20054;-65
2021/12/09 01:53:45;;;;;;;10.55;4.95;;;;;;;;;;4990790;28;20054;-65
2021/12/09 01:56:14;;;;;;;8.32;5.07;;;;;;;;;;4988203;28;20054;-65
2021/12/09 01:58:41;;;;;;;7.65;4.43;;;;;;;;;;4955663;28;20106;-66
2021/12/09 02:01:08;;;;;;;15.15;5.03;;;;;;;;;;4971346;28;20117;-65
2021/12/09 02:03:35;;;;;;;15.07;6.00;;;;;;;;;;4972508;28;20057;-65
2021/12/09 02:06:02;;;;;;;14.93;6.28;;;;;;;;;;4973118;28;20085;-65
2021/12/09 02:08:28;;;;;;;11.20;5.75;;;;;;;;;;4976082;28;20427;-66
2021/12/09 02:10:55;;;;;;;13.63;6.85;;;;;;;;;;4976445;28;20054;-65
2021/12/09 02:13:22;;;;;;;14.13;7.30;;;;;;;;;;4975988;28;20058;-65
2021/12/09 02:15:52;;;;;;;17.83;8.23;;;;;;;;;;4975986;28;20054;-65
2021/12/09 02:18:20;;;;;;;10.90;7.20;;;;;;;;;;4976074;28;20074;-65
2021/12/09 02:21:07;;;;;;;18.17;7.30;;;;;;;;;;4976218;28;20050;-65
2021/12/09 02:23:34;;;;;;;18.33;8.20;;;;;;;;;;4974823;28;20051;-65
2021/12/09 02:26:00;;;;;;;16.20;7.22;;;;;;;;;;4975819;28;20046;-65
2021/12/09 02:28:27;;;;;;;20.08;8.10;;;;;;;;;;4975943;28;20121;-65
2021/12/09 02:30:54;;;;;;;17.42;7.82;;;;;;;;;;4975863;28;20055;-65
2021/12/09 02:33:20;;;;;;;17.15;7.63;;;;;;;;;;4974668;28;20046;-65
2021/12/09 02:35:47;;;;;;;17.60;7.55;;;;;;;;;;4974685;28;20046;-65
2021/12/09 02:38:14;;;;;;;17.33;7.63;;;;;;;;;;4976060;28;20514;-65
2021/12/09 02:40:41;;;;;;;15.13;6.68;;;;;;;;;;4975634;28;20047;-66
2021/12/09 02:43:08;;;;;;;14.52;5.93;;;;;;;;;;4975392;28;20477;-65
2021/12/09 02:45:36;;;;;;;16.63;5.65;;;;;;;;;;4975593;28;20055;-65
2021/12/09 02:48:03;;;;;;;12.48;5.15;;;;;;;;;;4958269;28;20553;-65
2021/12/09 02:50:29;;;;;;;11.40;4.55;;;;;;;;;;4975500;28;20055;-65
2021/12/09 02:52:56;;;;;;;14.32;5.15;;;;;;;;;;4989208;28;20055;-65
2021/12/09 02:55:22;;;;;;;14.40;5.72;;;;;;;;;;4993789;28;20100;-65
2021/12/09 02:57:52;;;;;;;17.23;6.40;;;;;;;;;;4994637;28;20054;-66
2021/12/09 03:00:20;;;;;;;19.73;6.47;;;;;;;;;;4993631;28;20054;-65
2021/12/09 03:02:47;;;;;;;20.23;7.35;;;;;;;;;;4994924;28;20054;-65
2021/12/09 03:05:14;;;;;;;16.17;6.22;;;;;;;;;;4993190;28;20520;-65
2021/12/09 03:07:42;;;;;;;16.35;6.72;;;;;;;;;;4977434;28;20050;-65
2021/12/09 03:10:19;;;;;;;26.20;7.75;;;;;;;;;;4994246;28;20109;-65
2021/12/09 03:12:47;;;;;;;25.13;7.50;;;;;;;;;;4994380;28;20058;-65
2021/12/09 03:15:14;;;;;;;12.50;7.35;;;;;;;;;;4993309;28;20050;-65
2021/12/09 03:17:43;;;;;;;27.73;7.72;;;;;;;;;;4992132;28;20102;-65
2021/12/09 03:20:11;;;;;;;21.13;7.85;;;;;;;;;;4978904;28;20093;-65
2021/12/09 03:22:39;;;;;;;22.02;7.38;;;;;;;;;;4973613;28;20102;-65
2021/12/09 03:25:08;;;;;;;15.38;7.20;;;;;;;;;;4974810;28;20086;-65
2021/12/09 03:27:34;;;;;;;17.45;7.35;;;;;;;;;;4974875;28;20047;-65
2021/12/09 03:30:01;;;;;;;20.02;8.07;;;;;;;;;;4973446;28;20047;-65
2021/12/09 03:32:28;;;;;;;16.77;7.22;;;;;;;;;;4978042;28;20473;-66
2021/12/09 03:34:54;;;;;;;13.45;6.88;;;;;;;;;;4993961;28;20050;-65
2021/12/09 03:37:24;;;;;;;17.80;7.55;;;;;;;;;;4993948;28;20108;-65
2021/12/09 03:39:51;;;;;;;16.52;7.30;;;;;;;;;;4992791;28;20429;-65
2021/12/09 03:42:20;;;;;;;20.35;7.32;;;;;;;;;;4992797;28;20050;-65
2021/12/09 03:44:48;;;;;;;16.48;7.35;;;;;;;;;;4993734;28;20108;-65
2021/12/09 03:47:16;;;;;;;20.50;6.93;;;;;;;;;;4993842;28;20563;-65
2021/12/09 03:49:43;;;;;;;14.77;6.82;;;;;;;;;;4993537;28;20540;-65
2021/12/09 03:52:11;;;;;;;17.70;7.18;;;;;;;;;;4993774;28;20050;-65
2021/12/09 03:54:38;;;;;;;13.10;6.80;;;;;;;;;;4992527;28;20054;-65
2021/12/09 03:57:06;;;;;;;16.50;7.28;;;;;;;;;;4993553;28;20054;-65
2021/12/09 03:59:33;;;;;;;21.90;6.75;;;;;;;;;;4989064;28;20046;-65
2021/12/09 04:01:59;;;;;;;22.00;7.25;;;;;;;;;;4972873;28;20490;-65
2021/12/09 04:04:26;;;;;;;18.98;6.82;;;;;;;;;;4973043;28;20050;-65
2021/12/09 04:06:53;;;;;;;16.80;6.97;;;;;;;;;;4973167;28;20109;-65
2021/12/09 04:09:22;;;;;;;20.48;7.13;;;;;;;;;;4974306;28;20054;-64
2021/12/09 04:11:52;;;;;;;14.73;7.65;;;;;;;;;;4972714;28;20047;-65
2021/12/09 04:14:20;;;;;;;20.67;7.10;;;;;;;;;;4988089;28;20571;-66
2021/12/09 04:16:47;;;;;;;15.18;6.95;;;;;;;;;;4993145;28;20093;-65
2021/12/09 04:19:14;;;;;;;15.00;7.70;;;;;;;;;;4991954;28;20082;-65
2021/12/09 04:21:41;;;;;;;18.00;8.05;;;;;;;;;;4992401;28;20050;-65
2021/12/09 04:24:09;;;;;;;20.83;7.85;;;;;;;;;;4975815;28;20402;-64
2021/12/09 04:26:43;;;;;;;19.05;7.05;;;;;;;;;;4989249;28;20047;-64
2021/12/09 04:29:11;;;;;;;18.83;7.20;;;;;;;;;;4970207;28;20129;-66
2021/12/09 04:31:38;;;;;;;16.73;7.03;;;;;;;;;;4971939;28;20494;-65
2021/12/09 04:34:05;;;;;;;19.15;7.85;;;;;;;;;;4970615;28;20051;-65
2021/12/09 04:36:32;;;;;;;20.40;7.15;;;;;;;;;;4971957;28;20106;-64
2021/12/09 04:38:59;;;;;;;16.88;6.85;;;;;;;;;;4988262;28;20050;-65
2021/12/09 04:41:25;;;;;;;13.50;7.25;;;;;;;;;;4973400;28;20498;-65
2021/12/09 04:43:53;;;;;;;18.02;7.22;;;;;;;;;;4973316;28;20109;-66
2021/12/09 04:46:22;;;;;;;15.48;7.03;;;;;;;;;;4973614;28;20082;-66
2021/12/09 04:48:51;;;;;;;18.25;7.50;;;;;;;;;;4972282;28;20138;-65
2021/12/09 04:51:18;;;;;;;19.52;8.02;;;;;;;;;;4970225;28;20055;-66
2021/12/09 04:53:45;;;;;;;20.63;7.65;;;;;;;;;;4972684;28;20053;-66
2021/12/09 04:56:20;;;;;;;24.00;7.95;;;;;;;;;;4973987;28;20055;-66
2021/12/09 04:58:51;;;;;;;22.90;7.93;;;;;;;;;;4973916;28;20162;-65
2021/12/09 05:01:18;;;;;;;19.27;7.30;;;;;;;;;;4985879;28;20054;-65
2021/12/09 05:03:47;;;;;;;18.90;7.22;;;;;;;;;;4991389;28;20050;-65
2021/12/09 05:06:15;;;;;;;13.10;7.32;;;;;;;;;;4991386;28;20049;-66
2021/12/09 05:08:46;;;;;;;22.60;7.95;;;;;;;;;;4991128;28;20046;-66
2021/12/09 05:11:28;;;;;;;22.75;7.10;;;;;;;;;;4975836;28;20101;-65
2021/12/09 05:13:55;;;;;;;21.60;7.28;;;;;;;;;;4992407;28;20054;-65
2021/12/09 05:16:22;;;;;;;14.18;6.40;;;;;;;;;;4992361;28;20493;-66
2021/12/09 05:18:50;;;;;;;22.63;6.97;;;;;;;;;;4992404;28;20050;-65
2021/12/09 05:21:17;;;;;;;14.27;6.28;;;;;;;;;;4991243;28;20398;-65
2021/12/09 05:23:44;;;;;;;20.13;6.13;;;;;;;;;;4992136;28;20096;-65
2021/12/09 05:26:10;;;;;;;19.05;6.32;;;;;;;;;;4975203;28;20108;-66
2021/12/09 05:28:52;;;;;;;20.70;6.68;;;;;;;;;;4989312;28;20047;-66
2021/12/09 05:34:03;;;;;;;19.13;6.47;;;;;;;;;;4992258;28;20101;-65
2021/12/09 05:36:30;;;;;;;19.55;5.72;;;;;;;;;;4992360;28;20062;-67
2021/12/09 05:38:57;;;;;;;15.00;5.72;;;;;;;;;;4992427;28;20054;-66
2021/12/09 05:41:24;;;;;;;15.35;6.50;;;;;;;;;;4986555;28;20054;-66
2021/12/09 05:43:50;;;;;;;12.27;6.15;;;;;;;;;;4976663;28;20113;-66
2021/12/09 05:46:17;;;;;;;17.10;6.20;;;;;;;;;;4976844;28;20055;-66
2021/12/09 05:48:44;;;;;;;10.85;5.60;;;;;;;;;;4975428;28;20097;-65
2021/12/09 05:51:11;;;;;;;12.30;5.05;;;;;;;;;;4976801;28;20058;-67
2021/12/09 05:53:38;;;;;;;17.60;5.78;;;;;;;;;;4975301;28;20051;-65
2021/12/09 05:56:04;;;;;;;16.83;5.72;;;;;;;;;;4976695;28;20059;-66
2021/12/09 05:58:31;;;;;;;10.82;5.07;;;;;;;;;;4975070;28;20046;-66
2021/12/09 06:00:58;;;;;;;12.52;5.13;;;;;;;;;;4978044;28;20182;-65
2021/12/09 06:03:25;;;;;;;11.43;5.28;;;;;;;;;;4975467;28;20055;-67
2021/12/09 06:05:51;;;;;;;13.02;4.90;;;;;;;;;;4975400;28;20061;-67
2021/12/09 06:08:19;;;;;;;14.75;6.18;;;;;;;;;;4975572;28;20043;-67
2021/12/09 06:10:46;;;;;;;9.73;4.78;;;;;;;;;;4956858;28;20054;-66
2021/12/09 06:13:13;;;;;;;11.27;5.28;;;;;;;;;;4973137;28;20066;-66
2021/12/09 06:15:40;;;;;;;11.20;5.00;;;;;;;;;;4973194;28;20494;-66
2021/12/09 06:18:07;;;;;;;22.67;6.57;;;;;;;;;;4974312;28;20133;-66
2021/12/09 06:20:34;;;;;;;17.30;5.82;;;;;;;;;;4974279;28;20055;-66
2021/12/09 06:23:00;;;;;;;11.05;4.75;;;;;;;;;;4979902;28;20063;-66
2021/12/09 06:25:27;;;;;;;14.75;5.05;;;;;;;;;;4974316;28;20058;-65
2021/12/09 06:27:55;;;;;;;14.55;4.80;;;;;;;;;;4974202;28;20047;-66
2021/12/09 06:30:22;;;;;;;9.73;4.20;;;;;;;;;;4974212;28;20086;-66
2021/12/09 06:32:48;;;;;;;18.67;5.00;;;;;;;;;;4972887;28;20568;-66
2021/12/09 06:35:15;;;;;;;16.83;4.93;;;;;;;;;;4980299;28;20132;-65
2021/12/09 06:37:44;;;;;;;11.93;6.00;;;;;;;;;;4993339;28;20057;-67
2021/12/09 06:40:17;;;;;;;13.13;5.38;;;;;;;;;;4992210;28;20488;-65
2021/12/09 06:42:44;;;;;;;14.00;5.93;;;;;;;;;;4976269;28;20735;-66
2021/12/09 06:45:12;;;;;;;8.18;5.63;;;;;;;;;;4976352;28;20436;-66
2021/12/09 06:47:39;;;;;;;11.30;5.07;;;;;;;;;;4991407;28;20054;-66
2021/12/09 06:50:07;;;;;;;12.45;5.13;;;;;;;;;;4972419;28;20557;-66
2021/12/09 06:52:34;;;;;;;12.40;5.32;;;;;;;;;;4955452;28;20075;-69
2021/12/09 06:55:04;;;;;;;13.45;5.93;;;;;;;;;;4959695;28;20130;-65
2021/12/09 06:57:31;;;;;;;19.10;7.32;;;;;;;;;;4961714;28;20051;-66
2021/12/09 06:59:57;;;;;;;10.98;6.03;;;;;;;;;;4959771;28;20055;-66
2021/12/09 07:02:24;;;;;;;13.88;6.57;;;;;;;;;;4963832;28;20485;-64
2021/12/09 07:04:51;;;;;;;10.40;6.30;;;;;;;;;;4959253;28;20058;-66
2021/12/09 07:07:17;;;;;;;11.70;6.65;;;;;;;;;;4959620;28;20066;-67
2021/12/09 07:09:44;;;;;;;10.50;5.57;;;;;;;;;;4960017;28;20113;-66
2021/12/09 07:12:11;;;;;;;16.13;5.85;;;;;;;;;;4959008;28;20059;-65
2021/12/09 07:14:39;;;;;;;13.63;5.68;;;;;;;;;;4960183;28;20051;-66
2021/12/09 07:17:06;;;;;;;10.70;5.18;;;;;;;;;;4959051;28;20046;-65
2021/12/09 07:19:32;;;;;;;18.65;7.40;;;;;;;;;;4965483;28;20054;-65
2021/12/09 07:21:59;;;;;;;35.47;13.18;;;;;;;;;;4958593;28;20099;-65
2021/12/09 07:24:25;;;;;;;28.08;10.18;;;;;;;;;;4960638;28;20058;-66
2021/12/09 07:26:52;;;;;;;27.45;10.10;;;;;;;;;;4958776;28;20419;-67
2021/12/09 07:29:19;;;;;;;22.85;10.18;;;;;;;;;;4979651;28;20054;-65
2021/12/09 07:31:46;;;;;;;30.77;10.35;;;;;;;;;;4961086;28;20110;-66
2021/12/09 07:34:13;;;;;;;20.48;7.78;;;;;;;;;;4959696;28;20395;-66
2021/12/09 07:36:39;;;;;;;30.10;8.35;;;;;;;;;;4958443;28;20047;-64
2021/12/09 07:39:06;;;;;;;22.17;8.85;;;;;;;;;;4961043;28;20106;-65
2021/12/09 07:41:32;;;;;;;19.42;8.20;;;;;;;;;;4958799;28;20063;-64
2021/12/09 07:44:02;;;;;;;13.55;6.70;;;;;;;;;;4957404;28;20055;-65
2021/12/09 07:46:33;;;;;;;16.90;6.60;;;;;;;;;;4962635;28;20065;-66
2021/12/09 07:49:00;;;;;;;18.10;7.05;;;;;;;;;;4980494;28;20049;-67
2021/12/09 07:51:26;;;;;;;14.20;5.22;;;;;;;;;;4978050;28;20101;-69
2021/12/09 07:53:53;;;;;;;10.68;5.20;;;;;;;;;;4991411;28;20509;-65
2021/12/09 07:56:24;;;;;;;9.60;4.93;;;;;;;;;;4978796;28;20061;-66
2021/12/09 07:58:51;;;;;;;13.05;6.72;;;;;;;;;;4977085;28;20464;-64
2021/12/09 08:01:18;;;;;;;8.57;5.35;;;;;;;;;;4977764;28;20080;-66
2021/12/09 08:03:47;;;;;;;12.23;5.10;;;;;;;;;;4977007;28;20105;-65
2021/12/09 08:06:15;;;;;;;15.27;5.75;;;;;;;;;;4975433;28;20410;-66
2021/12/09 08:08:41;;;;;;;12.45;5.18;;;;;;;;;;4979001;28;20049;-63
2021/12/09 08:11:08;;;;;;;13.20;5.57;;;;;;;;;;4988619;28;20069;-66
2021/12/09 08:13:35;;;;;;;9.27;4.97;;;;;;;;;;4984852;28;20081;-65
2021/12/09 08:16:02;;;;;;;12.98;5.40;;;;;;;;;;4976447;28;20054;-66
2021/12/09 08:18:32;;;;;;;14.30;5.50;;;;;;;;;;4982861;28;20047;-69
2021/12/09 08:21:01;;;;;;;10.55;5.57;;;;;;;;;;4980555;28;20047;-70
2021/12/09 08:23:28;;;;;;;15.35;6.40;;;;;;;;;;4980320;28;20493;-69
2021/12/09 08:25:57;;;;;;;12.30;6.32;;;;;;;;;;4977646;28;20422;-68
2021/12/09 08:28:23;;;;;;;14.15;5.78;;;;;;;;;;4980302;28;20501;-68
2021/12/09 08:30:51;;;;;;;10.35;6.35;;;;;;;;;;4979948;28;20054;-70
2021/12/09 08:33:19;;;;;;;10.60;5.63;;;;;;;;;;4978691;28;20050;-68
2021/12/09 08:35:46;;;;;;;9.63;5.07;;;;;;;;;;4978350;28;20569;-66
2021/12/09 08:38:13;;;;;;;10.10;5.57;;;;;;;;;;4979493;28;20058;-66
2021/12/09 08:40:42;;;;;;;11.90;5.70;;;;;;;;;;4994644;28;20498;-65
2021/12/09 08:43:09;;;;;;;14.38;5.28;;;;;;;;;;4976459;28;20050;-65
2021/12/09 08:45:36;;;;;;;6.22;4.57;;;;;;;;;;4979437;28;20054;-66
2021/12/09 08:48:04;;;;;;;8.30;4.82;;;;;;;;;;4976909;28;20051;-66
2021/12/09 08:50:33;;;;;;;8.10;4.72;;;;;;;;;;4978984;28;20054;-67
2021/12/09 08:53:07;;;;;;;11.18;5.53;;;;;;;;;;4992966;28;20053;-66
2021/12/09 08:55:34;;;;;;;15.02;7.00;;;;;;;;;;4998831;28;20057;-66
2021/12/09 08:58:01;;;;;;;9.82;5.70;;;;;;;;;;4993760;28;20124;-66
2021/12/09 09:00:30;;;;;;;9.63;5.65;;;;;;;;;;4979086;28;20054;-66
2021/12/09 09:02:57;;;;;;;8.70;5.45;;;;;;;;;;4978610;28;20055;-66
2021/12/09 09:05:24;;;;;;;9.30;4.85;;;;;;;;;;4976680;28;20471;-66
2021/12/09 09:07:51;;;;;;;10.00;4.35;;;;;;;;;;4985936;28;20142;-66
2021/12/09 09:10:21;;;;;;;6.60;4.22;;;;;;;;;;4977732;28;20075;-67
2021/12/09 09:12:48;;;;;;;7.82;5.05;;;;;;;;;;4979126;28;20046;-66
2021/12/09 09:15:16;;;;;;;10.82;5.68;;;;;;;;;;4978303;28;20073;-66
2021/12/09 09:17:43;;;;;;;9.73;5.10;;;;;;;;;;4994501;28;20446;-67
2021/12/09 09:20:12;;;;;;;8.10;5.10;;;;;;;;;;4977823;28;20465;-65
2021/12/09 09:22:39;;;;;;;11.70;4.80;;;;;;;;;;4979400;28;20050;-66
2021/12/09 09:25:07;;;;;;;10.48;4.45;;;;;;;;;;4977703;28;20054;-65
2021/12/09 09:27:34;;;;;;;9.38;4.88;;;;;;;;;;4977022;28;20055;-65
2021/12/09 09:30:04;;;;;;;8.10;4.82;;;;;;;;;;4978428;28;20089;-65
2021/12/09 09:32:31;;;;;;;8.02;5.47;;;;;;;;;;4960793;28;20477;-66
2021/12/09 09:34:57;;;;;;;6.32;4.07;;;;;;;;;;4981921;28;20387;-65
2021/12/09 09:37:24;;;;;;;8.63;4.85;;;;;;;;;;4973293;28;20451;-65
2021/12/09 09:39:51;;;;;;;14.57;5.85;;;;;;;;;;4978051;28;20449;-66
2021/12/09 09:42:34;;;;;;;7.43;4.60;;;;;;;;;;4992622;28;20051;-66
2021/12/09 09:45:01;;;;;;;;;;;;;;;;;;4994293;28;20054;-65
2021/12/09 09:47:27;;;;;;;9.90;5.18;;;;;;;;;;4978826;28;19921;-65
2021/12/09 09:49:56;;;;;;;8.55;4.80;;;;;;;;;;4981828;28;20445;-65
2021/12/09 09:52:23;;;;;;;7.20;4.22;;;;;;;;;;4979207;28;20046;-65
2021/12/09 09:54:51;;;;;;;8.10;4.22;;;;;;;;;;4977652;28;20061;-65
2021/12/09 09:57:17;;;;;;;7.07;4.18;;;;;;;;;;4979271;28;20568;-65
2021/12/09 09:59:44;;;;;;;12.50;5.15;;;;;;;;;;4977671;28;20047;-65
2021/12/09 10:02:11;;;;;;;10.45;4.10;;;;;;;;;;4994089;28;20113;-65
2021/12/09 10:04:45;;;;;;;7.65;4.30;;;;;;;;;;4977220;28;20047;-65
2021/12/09 10:07:14;;;;;;;5.18;3.67;;;;;;;;;;4976997;28;20106;-65
2021/12/09 10:09:41;;;;;;;7.70;4.38;;;;;;;;;;5006251;22;20054;-66
2021/12/09 10:12:08;;;;;;;8.55;4.80;;;;;;;;;;5022650;28;20103;-66
2021/12/09 10:14:37;;;;;;;15.10;6.47;;;;;;;;;;5017548;28;20546;-66
2021/12/09 10:17:15;;;;;;;6.65;4.72;;;;;;;;;;5022356;28;20045;-66
2021/12/09 10:20:04;;;;;;;9.50;4.20;;;;;;;;;;5010515;28;20132;-66
2021/12/09 10:22:33;;;;;;;7.65;4.82;;;;;;;;;;5002698;28;20085;-67
2021/12/09 10:25:02;;;;;;;11.07;5.30;;;;;;;;;;4983310;28;20050;-68
2021/12/09 10:27:34;;;;;;;14.73;5.53;;;;;;;;;;4999694;28;20132;-66
2021/12/09 10:30:11;;;;;;;11.20;7.07;;;;;;;;;;4985114;28;20042;-66
2021/12/09 10:32:39;;;;;;;12.77;6.25;;;;;;;;;;5001043;28;20574;-64
2021/12/09 10:35:16;;;;;;;13.45;5.53;;;;;;;;;;5001092;28;20583;-64
2021/12/09 10:37:45;;;;;;;8.75;4.50;;;;;;;;;;5005485;28;20049;-65
2021/12/09 10:40:14;;;;;;;6.78;5.30;;;;;;;;;;5008152;28;20202;-64
2021/12/09 10:42:43;;;;;;;10.23;6.22;;;;;;;;;;5004795;28;20101;-63
2021/12/09 10:45:14;;;;;;;10.75;5.43;;;;;;;;;;5000884;28;20421;-64
2021/12/09 10:50:34;;;;;;;11.68;5.25;;;;;;;;;;5003407;28;20046;-69
2021/12/09 10:55:45;;;;;;;15.35;6.38;;;;;;;;;;4998800;28;20097;-68
2021/12/09 10:58:13;;;;;;;9.60;5.72;;;;;;;;;;4994590;28;20398;-67
2021/12/09 11:00:47;;;;;;;16.67;6.72;;;;;;;;;;5003524;28;20109;-68
2021/12/09 11:03:26;;;;;;;8.23;6.35;;;;;;;;;;5003501;28;20053;-69
2021/12/09 11:06:03;;;;;;;9.05;6.68;;;;;;;;;;4996413;28;20101;-68
2021/12/09 11:08:46;;;;;;;12.60;6.68;;;;;;;;;;4995857;28;20047;-69
2021/12/09 11:11:12;;;;;;;;;;;;;;;;;;5002359;28;20050;-68
2021/12/09 11:13:47;;;;;;;10.55;6.43;;;;;;;;;;4999452;28;19988;-68
2021/12/09 11:16:23;;;;;;;13.30;7.07;;;;;;;;;;4996483;28;20113;-66
2021/12/09 11:18:52;;;;;;;9.85;7.47;;;;;;;;;;5000478;28;20061;-68
2021/12/09 11:21:30;;;;;;;17.60;8.43;;;;;;;;;;4995308;28;20402;-71
2021/12/09 11:24:00;;;;;;;17.10;8.82;;;;;;;;;;4986513;28;20507;-70
2021/12/09 11:26:34;;;;;;;14.50;8.65;;;;;;;;;;4996523;28;20104;-68
2021/12/09 11:29:08;;;;;;;13.88;8.20;;;;;;;;;;5006663;28;20042;-69
2021/12/09 11:31:48;;;;;;;13.45;7.80;;;;;;;;;;4982208;28;20050;-70
2021/12/09 11:34:18;;;;;;;11.77;8.85;;;;;;;;;;4963075;28;20108;-69
2021/12/09 11:36:54;;;;;;;13.60;8.07;;;;;;;;;;5003997;28;20057;-68
2021/12/09 11:39:29;;;;;;;13.35;7.43;;;;;;;;;;4999564;28;20042;-70
2021/12/09 11:42:04;;;;;;;15.05;7.72;;;;;;;;;;4988005;28;20050;-70
2021/12/09 11:44:51;;;;;;;14.02;8.48;;;;;;;;;;5002875;28;20081;-69
2021/12/09 11:47:17;;;;;;;10.88;6.13;;;;;;;;;;5004189;28;20050;-68
2021/12/09 11:50:05;;;;;;;15.90;8.13;;;;;;;;;;4999691;28;20137;-71
2021/12/09 11:52:32;;;;;;;11.63;7.07;;;;;;;;;;5001254;28;20058;-68
2021/12/09 11:55:03;;;;;;;10.93;7.50;;;;;;;;;;5003585;28;20208;-68
2021/12/09 11:57:36;;;;;;;15.15;7.45;;;;;;;;;;5002098;28;20049;-70
2021/12/09 12:11:34;;;;;;;9.52;4.63;;;;;;;;;;4989626;28;20104;-67
2021/12/09 12:14:13;;;;;;;8.63;4.68;;;;;;;;;;5000334;28;20046;-70
2021/12/09 12:19:17;;;;;;;13.55;8.23;;;;;;;;;;4996670;28;20100;-67
2021/12/09 12:22:43;;;;;;;18.17;8.80;;;;;;;;;;5007458;28;20046;-68
2021/12/09 12:28:01;;;;;;;13.90;8.23;;;;;;;;;;4996835;28;20062;-70
2021/12/09 12:31:00;;;;;;;11.05;8.13;;;;;;;;;;4999131;28;20045;-69
2021/12/09 12:33:54;;;;;;;11.43;8.20;;;;;;;;;;4988858;28;20057;-69
2021/12/09 12:42:32;;;;;;;13.32;7.95;;;;;;;;;;4997660;28;20112;-68
2021/12/09 12:50:34;;;;;;;14.43;7.22;;;;;;;;;;4980803;28;20046;-68
2021/12/09 12:53:30;;;;;;;17.23;8.23;;;;;;;;;;5001755;28;20046;-67
2021/12/09 12:56:12;;;;;;;9.63;6.20;;;;;;;;;;5000814;28;20068;-68
2021/12/09 12:58:41;;;;;;;14.70;7.40;;;;;;;;;;4995351;28;20053;-65
2021/12/09 13:01:18;;;;;;;9.93;5.75;;;;;;;;;;5000968;28;20066;-66
2021/12/09 13:03:53;;;;;;;10.50;5.70;;;;;;;;;;4995979;28;20501;-65
2021/12/09 13:06:47;;;;;;;9.13;4.60;;;;;;;;;;4998365;28;20472;-65
2021/12/09 13:09:37;;;;;;;11.20;5.07;;;;;;;;;;4998086;28;20116;-65
2021/12/09 13:12:08;;;;;;;9.80;5.15;;;;;;;;;;4995195;28;20464;-65
2021/12/09 13:15:07;;;;;;;9.02;5.15;;;;;;;;;;4999101;28;20046;-65
2021/12/09 13:17:40;;;;;;;9.20;5.25;;;;;;;;;;5001214;28;20050;-66
2021/12/09 13:20:15;;;;;;;8.35;4.53;;;;;;;;;;4997377;28;20049;-65
2021/12/09 13:22:42;;;;;;;8.82;4.63;;;;;;;;;;4999071;28;20053;-67
2021/12/09 13:25:18;;;;;;;8.95;4.68;;;;;;;;;;4981924;28;20121;-66
2021/12/09 13:28:02;;;;;;;13.15;4.65;;;;;;;;;;4994903;28;20050;-65
2021/12/09 13:30:48;;;;;;;10.88;5.15;;;;;;;;;;4997739;28;20042;-65
2021/12/09 13:36:10;;;;;;;10.95;5.25;;;;;;;;;;4999033;28;20042;-65
2021/12/09 13:50:02;;;;;;;12.75;6.55;;;;;;;;;;4970962;28;20053;-69
2021/12/09 13:55:19;;;;;;;13.55;4.88;;;;;;;;;;5001386;28;20053;-68
2021/12/09 13:57:53;;;;;;;9.55;4.60;;;;;;;;;;5001032;28;20057;-68
2021/12/09 14:00:26;;;;;;;6.10;4.03;;;;;;;;;;5002605;28;20563;-68
2021/12/09 14:03:10;;;;;;;14.52;5.65;;;;;;;;;;4985520;28;20081;-69
2021/12/09 14:06:03;;;;;;;14.32;4.43;;;;;;;;;;5005118;28;20571;-68
2021/12/09 14:08:35;;;;;;;;;;;;;;;;;;5004063;28;20050;-69
2021/12/09 14:11:07;;;;;;;10.02;4.30;;;;;;;;;;5000257;28;19928;-68
2021/12/09 14:13:38;;;;;;;11.23;4.38;;;;;;;;;;5002731;28;20078;-68
2021/12/09 14:16:17;;;;;;;8.15;3.90;;;;;;;;;;5004412;28;20053;-69
2021/12/09 14:19:57;;;;;;;10.13;4.63;;;;;;;;;;5006438;28;20100;-68
2021/12/09 14:21:30;;;;;;;8.98;5.15;;;;;;;;;;4992071;28;20050;-66
2021/12/09 14:24:10;;;;;;;12.00;4.28;;;;;;;;;;5004542;28;20111;-64
2021/12/09 14:26:37;;;;;;;10.77;4.10;;;;;;;;;;5001325;28;20054;-64
2021/12/09 14:29:05;;;;;;;9.93;4.28;;;;;;;;;;5004517;28;20046;-64
2021/12/09 14:31:43;;;;;;;13.90;4.40;;;;;;;;;;5002170;28;20049;-64
2021/12/09 14:34:14;;;;;;;9.43;4.65;;;;;;;;;;5006294;28;20061;-64
2021/12/09 14:36:40;;;;;;;11.57;4.75;;;;;;;;;;4998663;28;20103;-64
2021/12/09 14:39:10;;;;;;;11.13;4.63;;;;;;;;;;5004320;28;20360;-64
2021/12/09 14:41:37;;;;;;;13.07;5.53;;;;;;;;;;5000219;28;20116;-63
2021/12/09 14:44:07;;;;;;;11.32;5.82;;;;;;;;;;5002861;28;20054;-64
2021/12/09 14:46:37;;;;;;;14.52;6.43;;;;;;;;;;5000141;28;20097;-64
2021/12/09 14:49:18;;;;;;;18.27;5.38;;;;;;;;;;5001507;28;20513;-63
2021/12/09 14:51:45;;;;;;;11.73;4.35;;;;;;;;;;4998537;28;20057;-64
2021/12/09 14:54:14;;;;;;;14.93;5.97;;;;;;;;;;5001163;28;20662;-64
2021/12/09 14:56:48;;;;;;;11.15;5.40;;;;;;;;;;5004275;28;20129;-64
2021/12/09 14:59:24;;;;;;;11.73;4.70;;;;;;;;;;5002157;28;20046;-64
2021/12/09 15:01:54;;;;;;;17.30;6.25;;;;;;;;;;5001747;28;20155;-64
2021/12/09 15:04:32;;;;;;;10.88;5.55;;;;;;;;;;5001994;28;20108;-65
2021/12/09 15:07:07;;;;;;;13.40;5.00;;;;;;;;;;5002345;28;20046;-64
2021/12/09 15:09:34;;;;;;;11.45;5.28;;;;;;;;;;4997078;28;20456;-65
2021/12/09 15:12:02;;;;;;;17.77;6.20;;;;;;;;;;5003951;28;20141;-65
2021/12/09 15:14:35;;;;;;;11.68;4.72;;;;;;;;;;4997477;28;20054;-64
2021/12/09 15:17:05;;;;;;;;;;;;;;;;;;5002220;28;20096;-64
2021/12/09 15:19:31;;;;;;;10.27;4.28;;;;;;;;;;5003332;28;19922;-64
2021/12/09 15:22:17;;;;;;;7.85;4.07;;;;;;;;;;5002402;28;20131;-64
2021/12/09 15:25:07;;;;;;;8.50;4.18;;;;;;;;;;4999486;28;20054;-64
2021/12/09 15:27:45;;;;;;;7.22;4.20;;;;;;;;;;4997926;28;20053;-64
2021/12/09 15:30:12;;;;;;;14.20;4.30;;;;;;;;;;5001730;28;20112;-64
2021/12/09 15:32:58;;;;;;;11.68;4.53;;;;;;;;;;5002062;28;20092;-64
2021/12/09 15:35:24;;;;;;;10.40;5.72;;;;;;;;;;5001986;28;20460;-64
2021/12/09 15:37:51;;;;;;;12.88;5.63;;;;;;;;;;4998811;28;20112;-64
2021/12/09 15:40:19;;;;;;;14.30;5.45;;;;;;;;;;5000239;28;20776;-64
2021/12/09 15:42:46;;;;;;;11.70;5.63;;;;;;;;;;5002323;28;20057;-64